createdAt,value
2018-07-16T00:02:11.476Z,83.70
2018-07-16T00:04:44.993Z,83.50
2018-07-16T00:07:18.484Z,83.80
2018-07-16T00:09:52.071Z,84.40
2018-07-16T00:12:25.609Z,84.30
2018-07-16T00:14:59.057Z,84.10
2018-07-16T00:17:32.816Z,84.50
2018-07-16T00:24:42.898Z,85.10
2018-07-16T00:27:16.543Z,85.40
2018-07-16T00:29:49.953Z,86.40
2018-07-16T00:32:23.430Z,87.90
2018-07-16T00:34:56.906Z,87.50
2018-07-16T00:37:30.360Z,87.40
2018-07-16T00:40:03.818Z,87.20
2018-07-16T00:42:37.280Z,87.00
2018-07-16T00:45:10.734Z,86.90
2018-07-16T00:47:44.198Z,87.20
2018-07-16T00:50:17.685Z,86.00
2018-07-16T00:52:51.149Z,86.00
2018-07-16T00:55:24.588Z,85.90
2018-07-16T01:00:31.188Z,85.80
2018-07-16T01:03:04.697Z,85.70
2018-07-16T01:05:38.133Z,85.10
2018-07-16T01:08:11.660Z,84.90
2018-07-16T01:10:45.118Z,85.20
2018-07-16T01:13:18.542Z,85.90
2018-07-16T01:15:51.998Z,85.60
2018-07-16T01:18:25.409Z,86.30
2018-07-16T01:20:59.049Z,86.00
2018-07-16T01:23:32.464Z,87.20
2018-07-16T01:26:06.043Z,86.10
2018-07-16T01:28:39.515Z,87.00
2018-07-16T01:31:13.030Z,87.00
2018-07-16T01:33:46.456Z,87.30
2018-07-16T01:38:52.975Z,87.20
2018-07-16T01:41:26.438Z,87.10
2018-07-16T01:43:59.932Z,86.80
2018-07-16T01:46:33.390Z,87.20
2018-07-16T01:49:06.880Z,87.00
2018-07-16T01:51:40.344Z,88.00
2018-07-16T01:54:13.783Z,87.90
2018-07-16T01:56:47.889Z,87.70
2018-07-16T01:59:21.333Z,87.60
2018-07-16T02:01:54.828Z,87.30
2018-07-16T02:04:28.285Z,87.60
2018-07-16T02:07:01.733Z,87.90
2018-07-16T02:09:35.189Z,87.80
2018-07-16T02:12:08.638Z,87.90
2018-07-16T02:14:42.102Z,88.10
2018-07-16T02:17:15.555Z,88.00
2018-07-16T02:19:49.051Z,87.80
2018-07-16T02:22:22.484Z,87.60
2018-07-16T02:24:55.934Z,87.50
2018-07-16T02:27:29.382Z,87.30
2018-07-16T02:30:02.907Z,87.00
2018-07-16T02:32:36.319Z,86.70
2018-07-16T02:35:09.842Z,86.60
2018-07-16T02:37:43.322Z,86.60
2018-07-16T02:40:16.859Z,86.80
2018-07-16T02:42:50.314Z,87.30
2018-07-16T02:45:23.790Z,87.50
2018-07-16T02:47:57.817Z,87.30
2018-07-16T02:50:31.259Z,87.20
2018-07-16T02:53:04.742Z,87.40
2018-07-16T02:55:38.165Z,87.40
2018-07-16T02:58:11.604Z,87.50
2018-07-16T03:00:45.117Z,87.60
2018-07-16T03:03:18.552Z,87.80
2018-07-16T03:05:52.016Z,87.80
2018-07-16T03:08:25.462Z,87.80
2018-07-16T03:10:58.948Z,88.30
2018-07-16T03:13:32.391Z,88.00
2018-07-16T03:16:05.828Z,88.10
2018-07-16T03:18:39.297Z,87.90
2018-07-16T03:21:12.735Z,88.70
2018-07-16T03:23:46.229Z,88.00
2018-07-16T03:26:19.695Z,87.90
2018-07-16T03:28:53.130Z,87.70
2018-07-16T03:31:26.566Z,87.90
2018-07-16T03:34:00.042Z,87.70
2018-07-16T03:36:33.465Z,88.00
2018-07-16T03:39:08.619Z,88.30
2018-07-16T03:41:42.051Z,88.50
2018-07-16T03:44:15.501Z,88.50
2018-07-16T03:46:48.943Z,88.60
2018-07-16T03:49:22.456Z,88.60
2018-07-16T03:51:55.879Z,88.80
2018-07-16T03:54:29.503Z,88.80
2018-07-16T03:57:02.967Z,88.80
2018-07-16T03:59:36.449Z,88.70
2018-07-16T04:02:09.949Z,88.50
2018-07-16T05:14:25.749Z,84.30
2018-07-16T05:16:59.230Z,83.40
2018-07-16T05:19:32.698Z,81.50
2018-07-16T05:22:06.365Z,78.90
2018-07-16T05:24:39.881Z,75.40
2018-07-16T05:27:13.352Z,69.90
2018-07-16T05:29:46.783Z,65.00
2018-07-16T05:32:20.294Z,61.40
2018-07-16T05:34:53.751Z,60.00
2018-07-16T05:37:27.203Z,59.60
2018-07-16T05:40:00.700Z,61.00
2018-07-16T05:42:34.162Z,59.80
2018-07-16T05:45:08.008Z,60.60
2018-07-16T05:47:41.517Z,62.90
2018-07-16T05:50:14.936Z,62.90
2018-07-16T05:52:48.390Z,61.10
2018-07-16T05:55:21.861Z,60.90
2018-07-16T05:57:55.304Z,63.20
2018-07-16T06:00:28.752Z,65.20
2018-07-16T06:03:02.228Z,66.70
2018-07-16T06:05:35.692Z,67.70
2018-07-16T06:08:09.377Z,68.30
2018-07-16T06:10:42.799Z,69.20
2018-07-16T06:13:16.264Z,70.90
2018-07-16T06:15:49.732Z,71.30
2018-07-16T06:18:23.197Z,71.90
2018-07-16T06:20:56.660Z,72.20
2018-07-16T06:23:30.150Z,70.70
2018-07-16T06:26:03.726Z,69.80
2018-07-16T06:28:37.216Z,68.40
2018-07-16T06:31:10.706Z,66.90
2018-07-16T06:33:44.215Z,65.50
2018-07-16T06:36:17.762Z,63.10
2018-07-16T06:38:51.241Z,61.90
2018-07-16T06:41:25.166Z,60.60
2018-07-16T06:43:58.245Z,60.90
2018-07-16T06:46:31.773Z,63.70
2018-07-16T06:49:05.253Z,64.10
2018-07-16T06:51:38.971Z,65.70
2018-07-16T06:54:12.384Z,64.00
2018-07-16T06:56:45.839Z,64.50
2018-07-16T06:59:19.272Z,64.80
2018-07-16T07:01:52.741Z,66.10
2018-07-16T07:04:26.205Z,65.90
2018-07-16T07:06:59.690Z,65.30
2018-07-16T07:09:33.129Z,66.20
2018-07-16T07:12:06.618Z,67.10
2018-07-16T07:14:40.094Z,68.00
2018-07-16T07:17:13.580Z,69.40
2018-07-16T07:19:47.014Z,71.90
2018-07-16T07:22:20.492Z,73.90
2018-07-16T07:24:53.925Z,76.20
2018-07-16T07:27:27.416Z,77.20
2018-07-16T07:30:00.828Z,77.50
2018-07-16T07:32:34.281Z,78.40
2018-07-16T07:35:07.855Z,79.10
2018-07-16T07:37:41.264Z,78.70
2018-07-16T07:40:14.736Z,79.90
2018-07-16T07:42:48.167Z,79.40
2018-07-16T07:45:21.606Z,79.10
2018-07-16T07:47:55.097Z,78.20
2018-07-16T07:50:28.568Z,78.50
2018-07-16T07:53:02.068Z,78.20
2018-07-16T07:55:35.752Z,76.50
2018-07-16T07:58:09.200Z,79.20
2018-07-16T08:00:42.632Z,79.20
2018-07-16T08:03:16.191Z,81.30
2018-07-16T08:05:55.020Z,81.80
2018-07-16T08:08:28.475Z,80.20
2018-07-16T08:11:02.328Z,80.50
2018-07-16T08:13:35.809Z,82.90
2018-07-16T08:16:09.319Z,82.70
2018-07-16T08:18:42.805Z,81.50
2018-07-16T08:21:16.285Z,79.90
2018-07-16T08:23:49.796Z,78.60
2018-07-16T08:26:23.273Z,78.90
2018-07-16T08:28:56.802Z,80.10
2018-07-16T08:31:30.255Z,81.80
2018-07-16T08:34:03.790Z,81.00
2018-07-16T08:36:37.257Z,80.20
2018-07-16T08:39:10.840Z,80.50
2018-07-16T08:41:44.349Z,81.00
2018-07-16T08:44:17.847Z,78.50
2018-07-16T08:46:51.330Z,78.60
2018-07-16T08:49:24.768Z,78.80
2018-07-16T08:51:58.308Z,77.40
2018-07-16T08:54:31.777Z,76.70
2018-07-16T08:57:05.395Z,76.70
2018-07-16T08:59:38.821Z,74.70
2018-07-16T09:02:12.359Z,74.00
2018-07-16T09:04:45.802Z,71.50
2018-07-16T09:07:19.223Z,69.20
2018-07-16T09:09:52.760Z,66.50
2018-07-16T09:12:26.166Z,64.50
2018-07-16T09:14:59.674Z,65.10
2018-07-16T09:17:33.089Z,65.70
2018-07-16T09:20:06.607Z,67.00
2018-07-16T09:22:40.094Z,65.80
2018-07-16T09:25:13.570Z,65.90
2018-07-16T09:27:47.052Z,67.10
2018-07-16T09:30:20.789Z,65.00
2018-07-16T09:32:54.275Z,63.90
2018-07-16T09:35:27.691Z,64.90
2018-07-16T09:38:01.161Z,65.00
2018-07-16T09:40:34.669Z,63.00
2018-07-16T09:43:08.171Z,63.10
2018-07-16T09:45:41.701Z,59.70
2018-07-16T09:48:15.146Z,60.00
2018-07-16T09:50:48.578Z,59.80
2018-07-16T09:53:22.040Z,57.70
2018-07-16T09:55:55.530Z,57.20
2018-07-16T09:58:29.002Z,57.40
2018-07-16T10:01:07.747Z,56.90
2018-07-16T10:03:41.267Z,55.90
2018-07-16T10:06:14.721Z,54.10
2018-07-16T10:08:48.234Z,55.20
2018-07-16T10:11:21.697Z,54.50
2018-07-16T10:13:55.252Z,54.80
2018-07-16T10:16:28.728Z,55.20
2018-07-16T10:19:02.564Z,54.20
2018-07-16T10:21:36.039Z,53.20
2018-07-16T10:24:09.532Z,53.80
2018-07-16T10:26:43.011Z,54.10
2018-07-16T10:29:16.461Z,53.10
2018-07-16T10:31:49.928Z,52.80
2018-07-16T10:34:23.389Z,50.50
2018-07-16T10:36:56.834Z,51.00
2018-07-16T10:39:30.425Z,50.00
2018-07-16T10:42:03.880Z,48.40
2018-07-16T10:44:37.356Z,48.40
2018-07-16T10:47:11.113Z,48.60
2018-07-16T10:49:44.627Z,47.40
2018-07-16T10:52:18.068Z,46.80
2018-07-16T10:54:51.519Z,46.90
2018-07-16T10:57:25.029Z,45.90
2018-07-16T10:59:58.497Z,46.30
2018-07-16T11:02:31.958Z,45.10
2018-07-16T11:05:05.426Z,45.10
2018-07-16T11:07:38.923Z,45.50
2018-07-16T11:10:12.482Z,46.40
2018-07-16T11:12:45.990Z,46.30
2018-07-16T11:15:19.461Z,45.80
2018-07-16T11:17:52.979Z,45.00
2018-07-16T11:20:26.384Z,45.40
2018-07-16T11:22:59.952Z,45.40
2018-07-16T11:25:33.462Z,45.80
2018-07-16T11:28:06.967Z,44.80
2018-07-16T11:30:40.442Z,44.30
2018-07-16T11:33:13.953Z,44.10
2018-07-16T11:35:47.563Z,44.80
2018-07-16T11:38:21.066Z,42.90
2018-07-16T11:40:54.548Z,43.40
2018-07-16T11:43:28.100Z,45.80
2018-07-16T11:46:01.626Z,45.00
2018-07-16T11:48:35.088Z,44.70
2018-07-16T11:51:08.608Z,43.60
2018-07-16T11:53:42.082Z,45.60
2018-07-16T11:56:15.552Z,47.40
2018-07-16T11:58:49.114Z,48.30
2018-07-16T12:01:22.622Z,47.60
2018-07-16T12:03:56.172Z,45.70
2018-07-16T12:06:29.725Z,47.20
2018-07-16T12:09:03.359Z,46.90
2018-07-16T12:11:36.855Z,47.50
2018-07-16T12:14:10.284Z,48.10
2018-07-16T12:16:43.789Z,47.20
2018-07-16T12:19:17.256Z,47.80
2018-07-16T12:21:50.732Z,47.70
2018-07-16T12:24:24.204Z,47.10
2018-07-16T12:26:57.654Z,47.60
2018-07-16T12:29:31.124Z,46.80
2018-07-16T12:32:04.589Z,47.30
2018-07-16T12:34:38.060Z,46.90
2018-07-16T12:37:11.916Z,45.80
2018-07-16T12:39:45.368Z,47.20
2018-07-16T12:42:19.345Z,46.00
2018-07-16T12:44:52.795Z,46.10
2018-07-16T12:47:26.272Z,45.00
2018-07-16T12:49:59.751Z,44.80
2018-07-16T12:52:33.250Z,44.80
2018-07-16T12:55:06.950Z,45.50
2018-07-16T12:57:40.460Z,43.90
2018-07-16T13:00:13.962Z,43.90
2018-07-16T13:02:47.408Z,44.60
2018-07-16T13:05:20.876Z,45.00
2018-07-16T13:07:54.322Z,44.00
2018-07-16T13:10:27.822Z,44.80
2018-07-16T13:13:01.293Z,44.60
2018-07-16T13:15:34.764Z,45.00
2018-07-16T13:18:08.277Z,43.60
2018-07-16T13:20:41.776Z,43.10
2018-07-16T13:23:15.277Z,43.70
2018-07-16T13:25:48.789Z,44.80
2018-07-16T13:28:22.305Z,43.80
2018-07-16T13:30:55.806Z,43.90
2018-07-16T13:33:29.244Z,43.50
2018-07-16T13:36:02.765Z,43.20
2018-07-16T13:38:36.259Z,42.30
2018-07-16T13:41:09.747Z,42.20
2018-07-16T13:43:43.181Z,42.20
2018-07-16T13:46:16.698Z,42.40
2018-07-16T13:48:50.155Z,42.20
2018-07-16T13:51:23.640Z,42.80
2018-07-16T13:53:57.106Z,42.60
2018-07-16T13:56:30.645Z,41.10
2018-07-16T13:59:04.126Z,40.90
2018-07-16T14:01:37.631Z,40.60
2018-07-16T14:04:11.229Z,40.50
2018-07-16T14:06:44.714Z,41.60
2018-07-16T14:09:18.196Z,42.80
2018-07-16T14:11:51.671Z,43.60
2018-07-16T14:14:25.141Z,44.40
2018-07-16T14:16:58.639Z,44.50
2018-07-16T14:19:32.094Z,44.10
2018-07-16T14:22:05.554Z,44.50
2018-07-16T14:24:39.027Z,43.10
2018-07-16T14:27:12.460Z,42.60
2018-07-16T14:29:45.973Z,42.60
2018-07-16T14:32:19.474Z,42.70
2018-07-16T14:34:52.991Z,43.20
2018-07-16T14:37:26.410Z,44.50
2018-07-16T14:40:00.222Z,44.80
2018-07-16T14:42:33.757Z,44.50
2018-07-16T14:45:07.272Z,44.20
2018-07-16T14:47:40.916Z,44.90
2018-07-16T14:50:14.320Z,45.50
2018-07-16T14:52:47.817Z,45.40
2018-07-16T14:55:21.314Z,45.20
2018-07-16T14:57:54.833Z,45.40
2018-07-16T15:00:28.296Z,46.10
2018-07-16T15:05:34.905Z,46.50
2018-07-16T15:08:08.407Z,46.50
2018-07-16T15:10:41.864Z,46.30
2018-07-16T15:13:15.376Z,46.20
2018-07-16T15:15:48.872Z,46.50
2018-07-16T15:18:22.372Z,46.40
2018-07-16T15:20:56.188Z,45.40
2018-07-16T15:23:29.501Z,47.10
2018-07-16T15:26:02.928Z,45.80
2018-07-16T15:28:36.387Z,44.90
2018-07-16T15:33:43.151Z,44.30
2018-07-16T15:36:16.673Z,46.40
2018-07-16T15:38:56.821Z,47.40
2018-07-16T15:41:30.453Z,49.20
2018-07-16T15:44:04.007Z,50.20
2018-07-16T15:46:37.441Z,50.90
2018-07-16T15:49:10.884Z,48.50
2018-07-16T15:51:44.380Z,48.10
2018-07-16T15:54:17.910Z,47.60
2018-07-16T15:56:51.357Z,47.00
2018-07-16T15:59:24.786Z,46.30
2018-07-16T16:01:58.305Z,46.40
2018-07-16T16:04:31.773Z,45.30
2018-07-16T16:07:07.153Z,45.20
2018-07-16T16:09:41.239Z,48.10
2018-07-16T16:12:14.780Z,48.90
2018-07-16T16:14:49.098Z,50.00
2018-07-16T16:17:22.517Z,50.90
2018-07-16T16:19:56.088Z,52.10
2018-07-16T16:22:29.541Z,52.60
2018-07-16T16:25:02.998Z,53.00
2018-07-16T16:27:36.588Z,54.00
2018-07-16T16:30:10.066Z,55.30
2018-07-16T16:32:43.642Z,56.30
2018-07-16T16:35:17.020Z,56.50
2018-07-16T16:37:50.570Z,57.40
2018-07-16T16:40:24.218Z,57.70
2018-07-16T16:42:57.917Z,57.10
2018-07-16T16:45:31.312Z,57.10
2018-07-16T16:48:04.888Z,57.50
2018-07-16T16:50:38.389Z,57.70
2018-07-16T16:53:11.903Z,57.80
2018-07-16T16:55:45.362Z,57.40
2018-07-16T16:58:18.904Z,57.70
2018-07-16T17:00:52.792Z,57.20
2018-07-16T17:03:26.327Z,57.10
2018-07-16T17:05:59.781Z,57.10
2018-07-16T17:08:33.264Z,57.10
2018-07-16T17:11:06.814Z,57.60
2018-07-16T17:13:40.359Z,59.40
2018-07-16T17:16:13.991Z,61.20
2018-07-16T17:18:47.472Z,61.40
2018-07-16T17:21:20.961Z,60.70
2018-07-16T17:23:54.494Z,59.10
2018-07-16T17:26:28.033Z,59.40
2018-07-16T17:29:01.503Z,59.10
2018-07-16T17:31:34.969Z,59.40
2018-07-16T17:34:08.420Z,59.30
2018-07-16T17:36:42.035Z,59.50
2018-07-16T17:39:15.499Z,59.30
2018-07-16T17:41:49.013Z,59.30
2018-07-16T17:44:22.483Z,58.20
2018-07-16T17:46:55.950Z,58.10
2018-07-16T17:49:29.418Z,59.20
2018-07-16T17:52:02.964Z,59.80
2018-07-16T17:54:36.516Z,60.80
2018-07-16T17:57:10.410Z,60.20
2018-07-16T18:02:17.116Z,63.40
2018-07-16T18:04:50.600Z,66.40
2018-07-16T18:07:24.152Z,67.30
2018-07-16T18:09:57.603Z,67.50
2018-07-16T18:12:31.113Z,67.40
2018-07-16T18:15:04.645Z,69.50
2018-07-16T18:17:38.222Z,71.40
2018-07-16T18:20:11.740Z,72.40
2018-07-16T18:22:45.310Z,73.30
2018-07-16T18:25:25.571Z,74.50
2018-07-16T18:27:59.049Z,75.60
2018-07-16T18:33:05.746Z,76.10
2018-07-16T18:35:39.263Z,76.20
2018-07-16T18:38:12.789Z,76.70
2018-07-16T18:40:46.270Z,76.90
2018-07-16T18:43:19.712Z,77.10
2018-07-16T18:45:53.262Z,77.50
2018-07-16T18:48:26.753Z,78.00
2018-07-16T18:51:00.194Z,78.10
2018-07-16T18:53:34.275Z,78.70
2018-07-16T18:56:07.833Z,78.90
2018-07-16T18:58:41.366Z,79.20
2018-07-16T19:01:14.910Z,79.50
2018-07-16T19:03:48.382Z,79.30
2018-07-16T19:06:21.875Z,79.60
2018-07-16T19:08:55.363Z,79.70
2018-07-16T19:11:28.888Z,79.80
2018-07-16T19:14:02.463Z,79.70
2018-07-16T19:16:36.103Z,79.60
2018-07-16T19:19:09.629Z,80.20
2018-07-16T19:21:43.132Z,80.30
2018-07-16T19:24:16.617Z,80.40
2018-07-16T19:26:50.109Z,81.20
2018-07-16T19:29:23.543Z,80.60
2018-07-16T19:34:30.148Z,80.90
2018-07-16T19:37:03.975Z,81.00
2018-07-16T19:39:37.488Z,78.80
2018-07-16T19:42:11.032Z,79.20
2018-07-16T19:44:44.716Z,79.60
2018-07-16T19:47:18.228Z,80.30
2018-07-16T19:49:51.695Z,80.50
2018-07-16T19:52:25.179Z,80.80
2018-07-16T19:54:59.245Z,81.60
2018-07-16T19:57:32.929Z,81.40
2018-07-16T20:00:07.140Z,81.50
2018-07-16T20:02:40.661Z,81.50
2018-07-16T20:05:14.119Z,81.60
2018-07-16T20:07:47.684Z,80.70
2018-07-16T20:10:21.196Z,80.40
2018-07-16T20:12:54.698Z,81.00
2018-07-16T20:15:28.386Z,81.20
2018-07-16T20:18:01.811Z,81.00
2018-07-16T20:20:49.823Z,78.80
2018-07-16T20:23:23.444Z,78.60
2018-07-16T20:25:58.132Z,78.40
2018-07-16T20:28:31.690Z,78.50
2018-07-16T20:31:05.161Z,81.10
2018-07-16T20:33:38.616Z,80.90
2018-07-16T20:36:12.093Z,80.80
2018-07-16T20:38:45.611Z,80.90
2018-07-16T20:41:19.078Z,81.00
2018-07-16T20:43:52.564Z,80.90
2018-07-16T20:46:26.085Z,81.00
2018-07-16T20:48:59.623Z,80.50
2018-07-16T20:51:33.042Z,79.80
2018-07-16T20:56:40.167Z,79.50
2018-07-16T20:59:13.661Z,78.90
2018-07-16T21:01:47.437Z,79.50
2018-07-16T21:04:20.905Z,79.80
2018-07-16T21:06:54.381Z,80.50
2018-07-16T21:09:27.932Z,81.50
2018-07-16T21:12:01.474Z,81.70
2018-07-16T21:14:34.979Z,81.80
2018-07-16T21:17:08.591Z,82.20
2018-07-16T21:19:42.025Z,82.10
2018-07-16T21:22:15.549Z,82.50
2018-07-16T21:24:49.300Z,82.10
2018-07-16T21:27:22.749Z,82.90
2018-07-16T21:29:56.213Z,82.30
2018-07-16T21:32:29.701Z,81.80
2018-07-16T21:35:03.439Z,83.30
2018-07-16T21:37:36.890Z,83.00
2018-07-16T21:40:10.369Z,83.10
2018-07-16T21:42:43.797Z,83.10
2018-07-16T21:45:17.257Z,83.00
2018-07-16T21:47:50.764Z,83.70
2018-07-16T21:50:24.284Z,83.00
2018-07-16T21:52:57.731Z,83.20
2018-07-16T21:55:31.176Z,83.20
2018-07-16T21:58:04.653Z,82.70
2018-07-16T22:00:38.187Z,82.30
2018-07-16T22:03:11.599Z,81.80
2018-07-16T22:05:45.071Z,82.10
2018-07-16T22:08:18.496Z,82.10
2018-07-16T22:10:51.942Z,82.30
2018-07-16T22:13:25.372Z,82.90
2018-07-16T22:15:58.872Z,83.10
2018-07-16T22:18:32.377Z,83.50
2018-07-16T22:21:05.870Z,83.50
2018-07-16T22:23:39.336Z,83.40
2018-07-16T22:26:12.829Z,83.20
2018-07-16T22:28:46.269Z,83.10
2018-07-16T22:31:19.702Z,81.90
2018-07-16T22:33:53.175Z,82.90
2018-07-16T22:36:26.593Z,83.90
2018-07-16T22:39:00.093Z,83.90
2018-07-16T22:41:33.536Z,84.10
2018-07-16T22:44:07.018Z,84.50
2018-07-16T22:46:40.459Z,84.40
2018-07-16T22:49:13.900Z,84.20
2018-07-16T22:51:47.343Z,83.20
2018-07-16T22:54:20.817Z,83.30
2018-07-16T22:56:54.241Z,83.40
2018-07-16T22:59:27.740Z,83.40
2018-07-16T23:02:01.224Z,83.90
2018-07-16T23:04:34.700Z,84.20
2018-07-16T23:07:08.454Z,83.60
2018-07-16T23:09:42.077Z,83.70
2018-07-16T23:12:15.518Z,83.90
2018-07-16T23:14:48.986Z,83.50
2018-07-16T23:17:22.397Z,83.20
2018-07-16T23:19:55.871Z,84.00
2018-07-16T23:22:29.285Z,83.70
2018-07-16T23:25:02.728Z,83.50
2018-07-16T23:27:36.152Z,83.70
2018-07-16T23:30:09.628Z,83.80
2018-07-16T23:32:43.329Z,83.90
2018-07-16T23:35:17.480Z,84.10
2018-07-16T23:37:50.890Z,84.20
2018-07-16T23:40:24.305Z,84.10
2018-07-16T23:42:57.731Z,84.50
2018-07-16T23:45:31.171Z,84.20
2018-07-16T23:48:04.957Z,84.50
2018-07-16T23:50:38.369Z,85.20
2018-07-16T23:53:11.803Z,85.40
2018-07-16T23:55:45.224Z,85.40
2018-07-16T23:58:18.653Z,85.10
